This is the latest recevied weather packets stored in our database for station/object SQ9PDE-13. If no packets are shown the sender has not sent any weather packets the latest 10 day(s).
| Time | Temp. | Humidity | Pressure | Rain* | Wind** | Luminosity | Snow |
|---|---|---|---|---|---|---|---|
| 1777270530 | 12.22° C | 52% | 1025 hPa | - | - | - | - |
| 1777270229 | 11.67° C | 53% | 1025.1 hPa | - | - | - | - |
| 1777269929 | 10° C | 54% | 1025.4 hPa | - | - | - | - |
| 1777269629 | 10.56° C | 56% | 1025.3 hPa | - | - | - | - |
| 1777269328 | 8.89° C | 58% | 1025.5 hPa | - | - | - | - |
| 1777269027 | 7.22° C | 60% | 1024.7 hPa | - | - | - | - |
| 1777268727 | 5.56° C | 61% | 1024.8 hPa | - | - | - | - |
| 1777268426 | 4.44° C | 60% | 1025 hPa | - | - | - | - |
| 1777268126 | 4.44° C | 60% | 1025 hPa | - | - | - | - |
| 1777267825 | 3.89° C | 62% | 1025.1 hPa | - | - | - | - |
| 1777267525 | 3.89° C | 61% | 1025.2 hPa | - | - | - | - |
| 1777267224 | 3.33° C | 62% | 1025.3 hPa | - | - | - | - |
| 1777266924 | 3.33° C | 62% | 1025.3 hPa | - | - | - | - |
| 1777266623 | 3.33° C | 63% | 1025.3 hPa | - | - | - | - |
| 1777266323 | 3.33° C | 63% | 1025.4 hPa | - | - | - | - |
| 1777266022 | 3.33° C | 64% | 1025.7 hPa | - | - | - | - |
| 1777265722 | 3.89° C | 69% | 1026.3 hPa | - | - | - | - |
| 1777265421 | 3.89° C | 71% | 1026.2 hPa | - | - | - | - |
| 1777265121 | 3.33° C | 72% | 1026.2 hPa | - | - | - | - |
| 1777264820 | 3.33° C | 74% | 1026.1 hPa | - | - | - | - |
| 1777264520 | 2.22° C | 69% | 1025.5 hPa | - | - | - | - |
| 1777264219 | 2.22° C | 74% | 1025.8 hPa | - | - | - | - |
| 1777263918 | 1.67° C | 73% | 1025.6 hPa | - | - | - | - |
| 1777263618 | 1.11° C | 71% | 1025.4 hPa | - | - | - | - |
| 1777263317 | 1.11° C | 71% | 1025.4 hPa | - | - | - | - |
* Rain since midnight (hover to see other rain measurements)
** Current wind speed in m/s (hover to see current wind gust speed)